Time;durP1;ratioP1;P1;durP2;ratioP2;P2;SDS_P1;SDS_P2;PMS_P1;PMS_P2;Temp;Humidity;BMP_temperature;BMP_pressure;BME280_temperature;BME280_humidity;BME280_pressure;Samples;Min_cycle;Max_cycle;Signal;HPM_P1;HPM_P2
2022/07/12 00:01:37;;;;;;;4.40;3.30;;;;;;;12.44;59.76;95259.69;5070174;28;20492;-75
2022/07/12 00:04:03;;;;;;;3.80;3.38;;;;;;;12.47;59.82;95256.03;5053219;28;20039;-75
2022/07/12 00:06:28;;;;;;;4.88;3.17;;;;;;;12.49;58.01;95257.53;5053468;28;20059;-75
2022/07/12 00:08:54;;;;;;;4.53;3.00;;;;;;;12.52;58.83;95267.72;5036835;28;20045;-75
2022/07/12 00:11:19;;;;;;;3.72;2.90;;;;;;;12.49;57.63;95257.53;5053426;28;20082;-75
2022/07/12 00:13:45;;;;;;;3.33;2.58;;;;;;;12.54;56.82;95259.78;5053384;28;20097;-75
2022/07/12 00:16:11;;;;;;;3.47;2.78;;;;;;;12.65;56.57;95266.72;5053335;28;20024;-75
2022/07/12 00:18:36;;;;;;;3.92;2.75;;;;;;;12.65;56.29;95257.09;5069646;28;20032;-75
2022/07/12 00:21:02;;;;;;;4.70;2.80;;;;;;;12.74;55.20;95255.50;5053358;28;20028;-75
2022/07/12 00:23:27;;;;;;;3.70;2.45;;;;;;;12.86;55.87;95267.47;5069896;28;20048;-75
2022/07/12 00:25:52;;;;;;;3.00;2.70;;;;;;;12.81;54.16;95254.00;5053358;28;20035;-75
2022/07/12 00:28:18;;;;;;;3.88;2.72;;;;;;;12.92;54.07;95256.53;5069768;28;20040;-75
2022/07/12 00:30:43;;;;;;;3.10;2.60;;;;;;;12.88;54.23;95255.16;5071115;28;20029;-76
2022/07/12 00:33:09;;;;;;;3.42;2.47;;;;;;;12.69;54.05;95255.06;5052908;28;20483;-75
2022/07/12 00:35:34;;;;;;;19.70;4.82;;;;;;;12.78;53.61;95256.88;5053109;28;20033;-75
2022/07/12 00:38:00;;;;;;;3.13;2.80;;;;;;;12.84;53.89;95256.38;5069714;28;20413;-76
2022/07/12 00:40:25;;;;;;;3.40;2.42;;;;;;;12.89;53.87;95251.56;5069638;28;20029;-75
2022/07/12 00:42:51;;;;;;;2.83;2.38;;;;;;;12.84;53.40;95247.72;5053076;28;20040;-75
2022/07/12 00:45:16;;;;;;;3.10;2.30;;;;;;;12.90;53.27;95250.63;5053017;28;20495;-75
2022/07/12 00:47:44;;;;;;;4.07;2.65;;;;;;;12.92;54.56;95253.09;5052937;28;20036;-75
2022/07/12 00:50:21;;;;;;;3.90;2.53;;;;;;;12.96;53.98;95250.09;5053362;28;20059;-75
2022/07/12 00:52:48;;;;;;;3.75;2.60;;;;;;;13.06;54.03;95252.75;5036325;28;20456;-75
2022/07/12 00:55:14;;;;;;;3.33;2.47;;;;;;;13.06;54.37;95259.75;5069521;28;20487;-75
2022/07/12 00:57:44;;;;;;;3.15;2.33;;;;;;;13.04;54.26;95259.03;5052549;28;20047;-75
2022/07/12 01:00:30;;;;;;;4.50;2.30;;;;;;;12.87;53.48;95257.88;5053380;28;20025;-75
2022/07/12 01:02:57;;;;;;;2.40;2.10;;;;;;;12.86;53.43;95249.22;5069095;28;20052;-75
2022/07/12 01:05:23;;;;;;;2.45;2.10;;;;;;;12.87;53.08;95253.50;5052884;28;20033;-75
2022/07/12 01:07:49;;;;;;;3.85;2.33;;;;;;;12.83;53.32;95254.72;5052758;28;20039;-75
2022/07/12 01:10:14;;;;;;;2.70;2.10;;;;;;;12.88;53.01;95260.38;5052605;28;20021;-76
2022/07/12 01:12:40;;;;;;;3.20;2.25;;;;;;;12.88;53.98;95257.75;5069317;28;20781;-75
2022/07/12 01:15:06;;;;;;;5.32;2.30;;;;;;;12.88;54.14;95244.72;5053010;28;20059;-75
2022/07/12 01:17:32;;;;;;;3.13;2.10;;;;;;;12.89;52.67;95254.19;5035906;28;20134;-76
2022/07/12 01:19:58;;;;;;;3.45;2.10;;;;;;;12.90;53.79;95248.03;5052683;28;20040;-75
2022/07/12 01:22:30;;;;;;;3.58;2.10;;;;;;;12.91;53.02;95257.50;5052427;28;20090;-76
2022/07/12 01:24:55;;;;;;;4.25;2.05;;;;;;;12.90;53.67;95239.38;5053048;28;20035;-76
2022/07/12 01:27:21;;;;;;;3.30;2.20;;;;;;;12.98;53.12;95255.19;5052719;28;20036;-76
2022/07/12 01:29:46;;;;;;;4.20;2.30;;;;;;;12.96;53.13;95251.91;5069156;28;20517;-76
2022/07/12 01:32:27;;;;;;;3.92;2.50;;;;;;;13.02;52.86;95253.97;5056130;28;20029;-75
2022/07/12 01:35:13;;;;;;;5.53;2.20;;;;;;;12.97;53.36;95246.53;5058663;28;20024;-75
2022/07/12 01:37:41;;;;;;;3.42;2.20;;;;;;;12.92;53.64;95247.88;5073286;28;20040;-76
2022/07/12 01:40:11;;;;;;;2.65;2.22;;;;;;;12.75;54.24;95229.28;5039629;28;20033;-76
2022/07/12 01:42:36;;;;;;;3.65;3.00;;;;;;;12.87;55.76;95250.91;5040159;28;20048;-75
2022/07/12 01:45:02;;;;;;;3.38;3.08;;;;;;;12.68;57.09;95243.81;5056227;28;20098;-75
2022/07/12 01:47:29;;;;;;;5.38;3.47;;;;;;;12.54;58.33;95251.97;5056096;28;20420;-76
2022/07/12 01:49:54;;;;;;;3.90;3.50;;;;;;;12.43;57.68;95239.81;5056095;28;20508;-76
2022/07/12 01:52:20;;;;;;;3.85;3.55;;;;;;;12.36;58.94;95256.91;5055887;28;20036;-76
2022/07/12 01:54:46;;;;;;;4.55;3.85;;;;;;;12.25;59.75;95247.38;5056062;28;20036;-75
2022/07/12 01:57:11;;;;;;;4.07;3.67;;;;;;;12.16;59.75;95252.53;5039252;28;20028;-75
2022/07/12 01:59:38;;;;;;;6.25;3.72;;;;;;;12.13;60.37;95248.41;5055900;28;20105;-75
2022/07/12 02:02:03;;;;;;;5.25;3.83;;;;;;;12.06;60.60;95255.91;5072474;28;20016;-76
2022/07/12 02:04:29;;;;;;;5.75;4.30;;;;;;;11.93;60.55;95255.22;5039013;28;20528;-75
2022/07/12 02:06:55;;;;;;;4.68;3.83;;;;;;;11.85;61.22;95260.19;5039140;28;20064;-75
2022/07/12 02:09:20;;;;;;;6.25;3.67;;;;;;;11.69;61.14;95257.16;5072462;28;20037;-75
2022/07/12 02:11:47;;;;;;;5.40;3.92;;;;;;;11.54;61.39;95254.84;5039094;28;20727;-75
2022/07/12 02:14:12;;;;;;;6.32;3.42;;;;;;;11.43;62.75;95260.06;5055893;28;20028;-75
2022/07/12 02:16:39;;;;;;;5.40;3.88;;;;;;;11.35;62.52;95245.06;5055623;28;20055;-75
2022/07/12 02:19:04;;;;;;;3.95;3.40;;;;;;;11.32;62.95;95253.13;5055572;28;20036;-75
2022/07/12 02:21:30;;;;;;;4.30;3.28;;;;;;;11.13;63.26;95232.94;5055404;28;20105;-75
2022/07/12 02:23:55;;;;;;;3.92;3.55;;;;;;;11.22;63.20;95253.97;5072156;28;20425;-75
2022/07/12 02:26:20;;;;;;;3.92;3.00;;;;;;;11.18;62.68;95254.19;5055312;28;20070;-75
2022/07/12 02:28:46;;;;;;;4.30;3.47;;;;;;;11.08;63.26;95250.66;5073373;28;20032;-75
2022/07/12 02:31:11;;;;;;;4.97;3.08;;;;;;;11.04;63.48;95256.22;5055264;28;20458;-75
2022/07/12 02:33:37;;;;;;;5.72;3.70;;;;;;;10.72;63.78;95255.13;5071994;28;20036;-75
2022/07/12 02:36:02;;;;;;;4.20;3.40;;;;;;;10.68;64.33;95253.72;5055315;28;20024;-76
2022/07/12 02:38:28;;;;;;;4.90;3.50;;;;;;;10.57;65.20;95252.91;5071929;28;20028;-75
2022/07/12 02:40:53;;;;;;;4.85;3.42;;;;;;;10.48;65.20;95251.84;5038268;28;20033;-75
2022/07/12 02:43:23;;;;;;;4.72;3.40;;;;;;;10.48;65.57;95260.44;5054765;28;20028;-75
2022/07/12 02:45:49;;;;;;;5.18;3.70;;;;;;;10.44;65.94;95247.78;5039438;28;20029;-75
2022/07/12 02:48:15;;;;;;;3.78;3.47;;;;;;;10.46;65.74;95243.31;5038357;28;20581;-75
2022/07/12 02:50:40;;;;;;;5.47;4.00;;;;;;;10.52;66.12;95259.25;5071737;28;20047;-75
2022/07/12 02:53:06;;;;;;;5.75;4.20;;;;;;;10.33;66.40;95250.38;5055136;28;20055;-75
2022/07/12 02:55:32;;;;;;;5.10;3.30;;;;;;;10.39;65.92;95255.09;5072689;28;20025;-75
2022/07/12 02:57:57;;;;;;;4.13;3.47;;;;;;;10.40;66.59;95261.97;5072484;28;20040;-75
2022/07/12 03:00:22;;;;;;;4.38;3.90;;;;;;;10.40;66.30;95267.97;5071464;28;20024;-75
2022/07/12 03:02:48;;;;;;;4.43;3.30;;;;;;;10.39;66.50;95270.69;5054660;28;20093;-75
2022/07/12 03:05:13;;;;;;;4.47;3.60;;;;;;;10.33;66.71;95271.97;5071308;28;20024;-75
2022/07/12 03:07:39;;;;;;;4.30;3.40;;;;;;;10.43;66.78;95282.50;5054577;28;20089;-75
2022/07/12 03:10:05;;;;;;;4.22;3.83;;;;;;;10.38;67.09;95272.47;5071244;28;20082;-75
2022/07/12 03:12:30;;;;;;;4.75;3.83;;;;;;;10.35;67.70;95274.47;5054389;28;20067;-75
2022/07/12 03:14:56;;;;;;;4.00;3.60;;;;;;;10.40;67.48;95280.16;5071118;28;20064;-75
2022/07/12 03:17:22;;;;;;;4.47;3.72;;;;;;;10.59;67.56;95282.19;5054180;28;20029;-75
2022/07/12 03:19:47;;;;;;;5.47;3.70;;;;;;;10.43;67.40;95282.50;5071034;28;20052;-75
2022/07/12 03:22:12;;;;;;;5.82;4.10;;;;;;;10.55;67.10;95291.97;5070921;28;20021;-76
2022/07/12 03:24:38;;;;;;;6.15;4.68;;;;;;;10.56;67.07;95290.19;5054153;28;20066;-75
2022/07/12 03:27:04;;;;;;;4.85;4.35;;;;;;;10.61;66.73;95296.69;5054149;28;20489;-76
2022/07/12 03:29:29;;;;;;;4.90;4.38;;;;;;;10.66;67.62;95288.56;5070709;28;20051;-76
2022/07/12 03:31:54;;;;;;;5.47;4.60;;;;;;;10.74;66.62;95281.03;5037500;28;20560;-75
2022/07/12 03:34:20;;;;;;;5.57;4.30;;;;;;;10.91;66.59;95292.72;5054110;28;20414;-76
2022/07/12 03:36:45;;;;;;;5.35;4.22;;;;;;;10.91;67.17;95290.13;5054025;28;20020;-76
2022/07/12 03:39:11;;;;;;;6.20;4.43;;;;;;;11.15;66.87;95293.44;5037456;28;20032;-76
2022/07/12 03:41:37;;;;;;;5.40;4.43;;;;;;;11.19;66.32;95279.25;5070625;28;20559;-76
2022/07/12 03:44:02;;;;;;;6.30;5.40;;;;;;;11.24;65.73;95294.50;5070793;28;20503;-76
2022/07/12 03:46:28;;;;;;;5.00;4.47;;;;;;;11.26;64.82;95300.41;5070501;28;20056;-76
2022/07/12 03:48:53;;;;;;;4.95;4.22;;;;;;;11.30;65.09;95293.19;5037175;28;20094;-76
2022/07/12 03:51:18;;;;;;;5.97;4.80;;;;;;;11.30;64.68;95291.41;5053734;28;20028;-75
2022/07/12 03:53:44;;;;;;;4.97;4.47;;;;;;;11.25;65.34;95308.31;5053020;28;20051;-75
2022/07/12 03:57:13;;;;;;;5.00;4.53;;;;;;;11.24;66.06;95297.09;5053801;28;20031;-76
2022/07/12 03:58:55;;;;;;;5.90;4.13;;;;;;;11.13;66.20;95271.94;5056407;28;20052;-76
2022/07/12 04:01:20;;;;;;;5.93;4.60;;;;;;;11.28;66.10;95284.69;5036908;28;20405;-76
2022/07/12 04:03:46;;;;;;;4.95;4.30;;;;;;;11.57;66.53;95300.63;5053605;28;20036;-76
2022/07/12 04:06:11;;;;;;;6.50;4.85;;;;;;;11.59;65.04;95289.16;5053508;28;20028;-76
2022/07/12 04:08:36;;;;;;;5.30;4.72;;;;;;;11.72;63.60;95293.34;5053399;28;20047;-76
2022/07/12 04:11:02;;;;;;;5.90;4.68;;;;;;;11.95;63.91;95299.34;5070131;28;20028;-76
2022/07/12 04:13:27;;;;;;;7.40;4.35;;;;;;;12.70;62.13;95301.84;5053393;28;20043;-76
2022/07/12 04:15:53;;;;;;;5.35;4.53;;;;;;;13.53;58.13;95294.00;5071340;28;20078;-76
2022/07/12 04:18:18;;;;;;;8.07;4.28;;;;;;;14.00;55.64;95297.66;5071392;28;20044;-76
2022/07/12 04:20:44;;;;;;;4.88;4.05;;;;;;;14.59;56.12;95300.28;5053694;28;20485;-76
2022/07/12 04:23:09;;;;;;;4.95;3.90;;;;;;;15.36;53.87;95312.34;5069895;28;20036;-76
2022/07/12 04:25:35;;;;;;;6.28;4.00;;;;;;;15.47;51.53;95306.09;5070096;28;20028;-76
2022/07/12 04:28:01;;;;;;;5.57;3.70;;;;;;;15.98;50.43;95310.78;5053439;28;20406;-77
2022/07/12 04:30:29;;;;;;;3.80;3.40;;;;;;;17.19;48.66;95313.75;5036788;28;20421;-77
2022/07/12 04:32:54;;;;;;;4.05;3.20;;;;;;;18.19;46.20;95313.97;5053456;28;20033;-76
2022/07/12 04:35:19;;;;;;;5.47;3.80;;;;;;;18.94;42.91;95298.06;5053272;28;20028;-77
2022/07/12 04:37:45;;;;;;;4.68;3.80;;;;;;;19.64;41.45;95314.03;5069981;28;20040;-77
2022/07/12 04:40:11;;;;;;;5.57;3.60;;;;;;;20.01;40.23;95317.84;5053375;28;20052;-77
2022/07/12 04:42:37;;;;;;;8.10;3.22;;;;;;;20.59;39.52;95309.59;5052958;28;20437;-77
2022/07/12 04:45:02;;;;;;;6.30;3.25;;;;;;;21.23;37.85;95317.94;5053375;28;20024;-77
2022/07/12 04:47:28;;;;;;;7.00;3.10;;;;;;;21.70;37.26;95313.31;5053076;28;20026;-77
2022/07/12 04:49:53;;;;;;;8.73;3.40;;;;;;;21.62;37.23;95308.97;5053305;28;20037;-77
2022/07/12 04:52:19;;;;;;;7.50;3.35;;;;;;;21.75;36.78;95309.13;5036369;28;20033;-77
2022/07/12 04:54:44;;;;;;;7.57;3.70;;;;;;;20.79;39.74;95312.59;5053351;28;20024;-77
2022/07/12 04:57:10;;;;;;;6.63;4.28;;;;;;;20.48;39.75;95319.53;5053400;28;20036;-77
2022/07/12 04:59:35;;;;;;;10.23;4.38;;;;;;;20.17;40.34;95319.59;5069685;28;20056;-77
2022/07/12 05:02:01;;;;;;;9.35;4.20;;;;;;;19.74;41.00;95315.69;5053203;28;20025;-76
2022/07/12 05:04:27;;;;;;;10.48;4.32;;;;;;;19.55;41.88;95315.03;5054215;28;20028;-77
2022/07/12 05:06:52;;;;;;;5.75;3.78;;;;;;;19.24;42.32;95314.16;5057391;28;20081;-76
2022/07/12 05:09:18;;;;;;;7.53;4.30;;;;;;;18.87;43.30;95323.44;5057316;28;20055;-77
2022/07/12 05:11:43;;;;;;;9.05;4.40;;;;;;;18.75;44.03;95320.31;5056939;28;20028;-77
2022/07/12 05:14:09;;;;;;;7.93;5.05;;;;;;;18.67;43.18;95326.38;5073957;28;20044;-77
2022/07/12 05:16:34;;;;;;;5.45;4.18;;;;;;;18.75;43.38;95321.13;5056990;28;20502;-77
2022/07/12 05:19:01;;;;;;;7.47;4.22;;;;;;;18.59;43.55;95321.09;5057071;28;20505;-77
2022/07/12 05:21:26;;;;;;;6.25;4.05;;;;;;;18.35;43.85;95321.91;5040492;28;20039;-77
2022/07/12 05:23:52;;;;;;;5.50;4.40;;;;;;;18.20;44.52;95324.34;5057300;28;20033;-77
2022/07/12 05:26:18;;;;;;;6.65;4.53;;;;;;;18.17;45.05;95319.41;5057073;28;20194;-77
2022/07/12 05:28:44;;;;;;;5.47;4.32;;;;;;;18.23;44.37;95325.84;5073517;28;20502;-77
2022/07/12 05:31:10;;;;;;;6.65;4.45;;;;;;;18.14;44.62;95330.25;5073227;28;20027;-77
2022/07/12 05:33:35;;;;;;;6.75;4.47;;;;;;;18.07;45.33;95330.06;5056817;28;20387;-77
2022/07/12 05:36:01;;;;;;;5.53;4.40;;;;;;;18.03;45.80;95322.66;5073486;28;20047;-77
2022/07/12 05:38:26;;;;;;;7.18;4.50;;;;;;;17.93;46.01;95329.88;5073131;28;20489;-77
2022/07/12 05:40:52;;;;;;;8.05;4.72;;;;;;;18.10;45.54;95323.66;5073350;28;20649;-77
2022/07/12 05:43:17;;;;;;;9.20;5.05;;;;;;;18.14;45.31;95325.00;5056665;28;20028;-77
2022/07/12 05:45:43;;;;;;;6.32;3.92;;;;;;;18.21;45.40;95304.13;5073456;28;20032;-77
2022/07/12 05:48:08;;;;;;;9.52;4.60;;;;;;;18.11;44.91;95330.59;5056294;28;20486;-77
2022/07/12 05:50:34;;;;;;;10.40;4.88;;;;;;;17.99;46.32;95332.66;5074372;28;20028;-77
2022/07/12 05:55:44;;;;;;;7.53;4.22;;;;;;;17.91;46.38;95327.38;5073568;28;20040;-77
2022/07/12 05:58:10;;;;;;;7.07;4.38;;;;;;;17.96;45.71;95319.03;5074125;28;20049;-77
2022/07/12 06:00:36;;;;;;;6.95;4.20;;;;;;;17.70;45.57;95332.22;5056093;28;20498;-77
2022/07/12 06:03:01;;;;;;;7.25;4.22;;;;;;;17.70;45.39;95327.78;5072897;28;20033;-77
2022/07/12 06:05:27;;;;;;;10.15;6.15;;;;;;;17.72;46.18;95328.47;5072862;28;20415;-77
2022/07/12 06:07:52;;;;;;;7.85;4.80;;;;;;;17.85;45.48;95320.97;5056172;28;20087;-77
2022/07/12 06:10:18;;;;;;;7.90;3.80;;;;;;;18.00;44.73;95323.00;5072530;28;20387;-77
2022/07/12 06:12:43;;;;;;;6.03;3.80;;;;;;;17.98;44.62;95317.88;5072766;28;20161;-77
2022/07/12 06:15:09;;;;;;;7.65;4.00;;;;;;;18.13;44.13;95317.25;5072988;28;20418;-77
2022/07/12 06:17:35;;;;;;;9.48;4.53;;;;;;;18.19;44.40;95322.72;5071897;28;20123;-77
2022/07/12 06:20:01;;;;;;;6.18;3.97;;;;;;;18.19;44.15;95304.31;5056056;28;20040;-77
2022/07/12 06:22:26;;;;;;;8.88;4.15;;;;;;;18.28;43.65;95308.59;5055867;28;20433;-77
2022/07/12 06:24:51;;;;;;;11.70;4.20;;;;;;;18.36;43.29;95309.56;5055718;28;20048;-77
2022/07/12 06:27:17;;;;;;;5.90;4.53;;;;;;;18.45;43.18;95311.25;5072584;28;20032;-77
2022/07/12 06:29:47;;;;;;;8.80;3.88;;;;;;;18.60;43.54;95309.59;5055465;28;20032;-77
2022/07/12 06:32:14;;;;;;;10.35;4.70;;;;;;;18.72;42.85;95313.53;5072628;28;20029;-77
2022/07/12 06:34:39;;;;;;;12.15;4.22;;;;;;;18.65;43.34;95286.22;5055908;28;20036;-77
2022/07/12 06:37:08;;;;;;;7.75;4.30;;;;;;;18.60;42.91;95317.47;5055648;28;20410;-77
2022/07/12 06:39:33;;;;;;;6.93;3.97;;;;;;;18.57;43.63;95304.66;5073446;28;20052;-77
2022/07/12 06:41:59;;;;;;;13.15;6.15;;;;;;;18.66;43.11;95308.91;5038876;28;20448;-77
2022/07/12 06:44:24;;;;;;;12.98;6.20;;;;;;;18.69;43.08;95306.00;5055356;28;20024;-77
2022/07/12 06:46:49;;;;;;;6.93;4.20;;;;;;;18.59;43.06;95312.41;5072180;28;20024;-77
2022/07/12 06:49:15;;;;;;;8.27;4.00;;;;;;;18.85;42.90;95307.78;5073398;28;20425;-77
2022/07/12 06:51:40;;;;;;;7.13;3.65;;;;;;;19.05;43.10;95303.00;5038857;28;20241;-77
2022/07/12 06:54:06;;;;;;;8.15;3.97;;;;;;;19.35;42.28;95300.63;5072263;28;20025;-77
2022/07/12 06:56:31;;;;;;;8.23;4.10;;;;;;;19.55;41.21;95298.41;5072221;28;20043;-77
2022/07/12 06:58:57;;;;;;;6.70;3.70;;;;;;;19.70;40.88;95301.22;5071537;28;20518;-77
2022/07/12 07:01:22;;;;;;;4.55;3.22;;;;;;;19.84;40.59;95295.22;5055384;28;20039;-77
2022/07/12 07:03:48;;;;;;;7.32;3.63;;;;;;;20.05;41.21;95294.59;5055367;28;20410;-77
2022/07/12 07:06:13;;;;;;;7.93;3.80;;;;;;;19.81;40.89;95290.28;5054990;28;20116;-77
2022/07/12 07:08:39;;;;;;;9.13;3.33;;;;;;;20.01;39.91;95291.47;5054494;28;20044;-77
2022/07/12 07:11:05;;;;;;;6.25;3.17;;;;;;;20.25;39.04;95290.53;5055140;28;20032;-77
2022/07/12 07:13:31;;;;;;;9.82;3.13;;;;;;;20.28;40.03;95284.06;5055063;28;20426;-77
2022/07/12 07:15:56;;;;;;;5.13;3.25;;;;;;;20.52;39.72;95294.44;5055299;28;20115;-77
2022/07/12 07:18:22;;;;;;;6.30;3.17;;;;;;;20.69;38.87;95296.97;5054750;28;20158;-77
2022/07/12 07:20:47;;;;;;;6.88;2.70;;;;;;;20.84;37.75;95289.94;5054917;28;20020;-77
2022/07/12 07:23:16;;;;;;;4.25;2.50;;;;;;;21.10;36.39;95299.25;5054729;28;20094;-77
2022/07/12 07:25:43;;;;;;;5.60;2.65;;;;;;;21.13;36.82;95304.19;5039030;28;20086;-77
2022/07/12 07:28:08;;;;;;;5.30;1.50;;;;;;;21.14;35.54;95293.41;5036975;28;20032;-77
2022/07/12 07:30:52;;;;;;;5.65;1.90;;;;;;;21.29;35.26;95298.72;5071350;28;20036;-77
2022/07/12 07:33:20;;;;;;;6.82;2.15;;;;;;;21.34;34.90;95301.66;5071526;28;20081;-77
2022/07/12 07:35:47;;;;;;;3.47;1.95;;;;;;;21.49;34.91;95287.66;5055247;28;20500;-77
2022/07/12 07:38:12;;;;;;;3.10;1.70;;;;;;;21.65;35.08;95292.75;5054702;28;20040;-78
2022/07/12 07:40:38;;;;;;;6.22;1.90;;;;;;;21.69;34.97;95288.72;5054350;28;20036;-77
2022/07/12 07:43:03;;;;;;;7.32;1.80;;;;;;;21.71;34.15;95292.00;5054555;28;20029;-77
2022/07/12 07:45:29;;;;;;;2.95;1.20;;;;;;;21.76;33.92;95292.28;5054488;28;20040;-78
2022/07/12 07:47:54;;;;;;;7.30;2.58;;;;;;;21.73;34.12;95290.00;5071197;28;20036;-78
2022/07/12 07:50:19;;;;;;;4.85;2.13;;;;;;;21.70;35.98;95273.66;5071854;28;20039;-78
2022/07/12 07:52:45;;;;;;;6.45;2.05;;;;;;;21.87;33.76;95285.69;5070963;28;20043;-78
2022/07/12 07:55:11;;;;;;;6.75;2.35;;;;;;;21.71;33.63;95288.53;5037690;28;20032;-78
2022/07/12 07:57:36;;;;;;;3.38;1.83;;;;;;;21.81;32.66;95281.97;5054008;28;20032;-77
2022/07/12 08:00:03;;;;;;;4.15;1.40;;;;;;;21.83;32.79;95276.47;5054165;28;20029;-78
2022/07/12 08:02:28;;;;;;;4.47;1.40;;;;;;;21.82;32.78;95278.31;5037803;28;20085;-78
2022/07/12 08:04:54;;;;;;;4.95;1.50;;;;;;;21.83;33.44;95279.13;5054227;28;20426;-78
2022/07/12 08:07:19;;;;;;;4.65;1.90;;;;;;;21.92;34.58;95280.66;5037474;28;20036;-78
2022/07/12 08:09:45;;;;;;;6.05;1.90;;;;;;;21.96;33.42;95276.63;5037207;28;20028;-78
2022/07/12 08:12:10;;;;;;;6.78;1.55;;;;;;;21.81;33.05;95274.03;5070789;28;20107;-77
2022/07/12 08:14:35;;;;;;;4.57;1.70;;;;;;;21.70;32.44;95268.38;5070689;28;20406;-78
2022/07/12 08:17:01;;;;;;;4.65;1.52;;;;;;;21.68;32.90;95270.41;5054040;28;20028;-78
2022/07/12 08:19:27;;;;;;;3.75;1.38;;;;;;;21.62;34.29;95274.63;5071714;28;20033;-78
2022/07/12 08:21:52;;;;;;;5.95;1.48;;;;;;;21.62;33.31;95277.25;5037192;28;20078;-78
2022/07/12 08:24:17;;;;;;;3.97;1.40;;;;;;;21.68;33.18;95263.28;5054081;28;20029;-78
2022/07/12 08:26:43;;;;;;;4.82;1.20;;;;;;;21.72;31.20;95261.09;5070239;28;20028;-78
2022/07/12 08:29:08;;;;;;;4.25;1.20;;;;;;;21.75;31.70;95261.53;5037274;28;20047;-78
2022/07/12 08:31:34;;;;;;;3.65;1.10;;;;;;;21.73;31.15;95255.63;5070500;28;20410;-78
2022/07/12 08:34:00;;;;;;;3.92;1.30;;;;;;;21.78;30.72;95253.22;5053911;28;20029;-78
2022/07/12 08:36:25;;;;;;;8.73;1.50;;;;;;;21.89;31.87;95246.66;5053391;28;20468;-77
2022/07/12 08:38:50;;;;;;;4.88;1.00;;;;;;;21.92;31.97;95248.91;5053541;28;20044;-78
2022/07/12 08:41:16;;;;;;;2.95;1.40;;;;;;;22.02;31.72;95253.91;5071325;28;20032;-78
2022/07/12 08:43:42;;;;;;;3.85;1.55;;;;;;;22.00;31.38;95255.91;5071861;28;20060;-78
2022/07/12 08:46:12;;;;;;;2.85;1.08;;;;;;;21.96;32.07;95244.09;5070025;28;20554;-78
2022/07/12 08:48:37;;;;;;;3.97;1.35;;;;;;;22.09;31.79;95246.84;5053659;28;20124;-78
2022/07/12 08:51:11;;;;;;;5.40;1.30;;;;;;;22.27;30.89;95238.53;5053365;28;20119;-78
2022/07/12 08:53:37;;;;;;;3.25;1.60;;;;;;;22.32;30.95;95241.44;5053482;28;20044;-78
2022/07/12 08:56:03;;;;;;;8.45;1.13;;;;;;;22.39;31.84;95231.72;5053525;28;20021;-77
2022/07/12 08:58:29;;;;;;;4.60;1.30;;;;;;;22.44;31.05;95239.09;5069634;28;20576;-78
2022/07/12 09:00:55;;;;;;;4.35;1.35;;;;;;;22.35;31.15;95229.66;5070201;28;20059;-78
2022/07/12 09:03:21;;;;;;;4.78;1.45;;;;;;;22.35;31.49;95242.88;5053415;28;20028;-78
2022/07/12 09:05:49;;;;;;;5.70;1.20;;;;;;;22.37;30.11;95244.34;5053548;28;20040;-78
2022/07/12 09:08:14;;;;;;;3.97;1.25;;;;;;;22.30;29.19;95244.25;5036606;28;20088;-77
2022/07/12 09:10:49;;;;;;;4.20;1.23;;;;;;;22.26;30.65;95237.72;5036830;28;20039;-78
2022/07/12 09:13:14;;;;;;;5.97;1.50;;;;;;;22.29;29.98;95234.69;5070018;28;20029;-78
2022/07/12 09:15:39;;;;;;;2.65;1.10;;;;;;;22.37;30.56;95230.25;5036680;28;20036;-78
2022/07/12 09:18:12;;;;;;;2.90;1.42;;;;;;;22.34;30.51;95228.00;5053140;28;20405;-78
2022/07/12 09:20:38;;;;;;;5.88;1.63;;;;;;;22.39;30.32;95228.25;5070122;28;20033;-78
2022/07/12 09:23:04;;;;;;;2.35;1.23;;;;;;;22.30;30.53;95232.84;5053113;28;20032;-78
2022/07/12 09:25:31;;;;;;;6.10;1.60;;;;;;;22.22;30.13;95239.09;5053071;28;20063;-78
2022/07/12 09:27:58;;;;;;;2.22;1.00;;;;;;;22.19;30.33;95228.88;5070005;28;20093;-77
2022/07/12 09:30:25;;;;;;;3.42;1.00;;;;;;;22.05;29.19;95209.38;5052812;28;20033;-78
2022/07/12 09:36:10;;;;;;;4.72;1.27;;;;;;;21.92;29.45;95226.94;5070349;28;20035;-78
2022/07/12 09:38:44;;;;;;;2.05;1.00;;;;;;;21.86;29.80;95229.31;5069646;28;20093;-78
2022/07/12 09:41:10;;;;;;;5.00;1.15;;;;;;;21.80;30.12;95223.97;5070962;28;20116;-78
2022/07/12 09:43:35;;;;;;;5.22;1.10;;;;;;;21.83;31.04;95234.97;5053256;28;20060;-77
2022/07/12 09:46:01;;;;;;;3.67;1.10;;;;;;;21.90;30.61;95231.59;5052808;28;20036;-78
2022/07/12 09:48:28;;;;;;;5.45;1.40;;;;;;;22.03;30.04;95223.81;5069589;28;20581;-78
2022/07/12 09:50:55;;;;;;;3.13;1.17;;;;;;;22.17;31.53;95232.69;5053059;28;20056;-78
2022/07/12 09:53:35;;;;;;;2.08;1.00;;;;;;;22.32;30.44;95214.16;5056717;28;20044;-77
2022/07/12 09:56:05;;;;;;;3.70;1.20;;;;;;;22.49;29.52;95220.81;5057467;28;20029;-78
2022/07/12 09:58:33;;;;;;;3.15;1.10;;;;;;;22.67;29.56;95223.78;5072832;28;20052;-77
2022/07/12 10:01:02;;;;;;;2.10;0.90;;;;;;;22.82;28.20;95201.72;5039969;28;20064;-78
2022/07/12 10:03:29;;;;;;;3.42;0.90;;;;;;;22.98;28.93;95219.97;5040731;28;20031;-78
2022/07/12 10:05:55;;;;;;;2.85;0.95;;;;;;;22.99;28.19;95224.28;5056575;28;20086;-77
2022/07/12 10:08:21;;;;;;;5.20;1.00;;;;;;;23.04;29.80;95219.22;5056413;28;20025;-78
2022/07/12 10:10:46;;;;;;;5.28;1.45;;;;;;;23.19;28.71;95211.16;5072748;28;20033;-78
2022/07/12 10:13:13;;;;;;;2.38;1.00;;;;;;;23.27;28.85;95220.78;5056447;28;20032;-78
2022/07/12 10:15:38;;;;;;;4.15;1.20;;;;;;;23.24;28.30;95213.22;5056407;28;20040;-78
2022/07/12 10:18:05;;;;;;;1.77;0.98;;;;;;;23.25;29.09;95215.66;5056423;28;20082;-78
2022/07/12 10:20:30;;;;;;;3.50;0.85;;;;;;;23.27;28.53;95215.47;5073742;28;20033;-78
2022/07/12 10:23:16;;;;;;;2.40;1.17;;;;;;;23.22;27.16;95208.09;5056128;28;20487;-78
2022/07/12 10:25:41;;;;;;;3.13;0.90;;;;;;;23.30;27.94;95213.25;5073932;28;20036;-77
2022/07/12 10:28:07;;;;;;;1.15;0.70;;;;;;;23.32;28.46;95211.22;5056094;28;20039;-78
2022/07/12 10:30:44;;;;;;;1.65;0.80;;;;;;;23.48;28.45;95204.75;5055730;28;20036;-78
2022/07/12 10:33:23;;;;;;;4.05;1.05;;;;;;;23.52;26.80;95197.25;5055951;28;20036;-78
2022/07/12 10:36:07;;;;;;;4.35;1.00;;;;;;;23.48;27.96;95193.34;5056043;28;20461;-78
2022/07/12 10:38:33;;;;;;;4.28;0.90;;;;;;;23.49;29.56;95200.28;5056028;28;20029;-78
2022/07/12 10:41:24;;;;;;;2.28;0.90;;;;;;;23.48;25.25;95196.78;5039257;28;20036;-78
2022/07/12 10:44:06;;;;;;;1.80;0.80;;;;;;;23.50;26.24;95200.06;5040425;28;20032;-78
2022/07/12 10:46:33;;;;;;;3.40;0.80;;;;;;;23.40;26.10;95203.09;5073577;28;20035;-78
2022/07/12 10:49:25;;;;;;;6.20;1.85;;;;;;;23.27;25.73;95205.69;5055659;28;20028;-78
2022/07/12 10:52:09;;;;;;;2.80;0.90;;;;;;;23.34;26.75;95197.75;5072488;28;20474;-78
2022/07/12 10:54:59;;;;;;;3.20;1.50;;;;;;;23.32;26.80;95194.50;5072268;28;20089;-78
2022/07/12 10:57:44;;;;;;;2.85;1.00;;;;;;;23.44;26.37;95198.22;5050842;28;20527;-78
2022/07/12 11:00:13;;;;;;;3.33;1.02;;;;;;;23.38;25.16;95194.53;5072133;28;20422;-78
2022/07/12 11:02:39;;;;;;;3.08;0.85;;;;;;;23.42;26.77;95200.25;5071966;28;20020;-78
2022/07/12 11:05:04;;;;;;;2.78;1.02;;;;;;;23.51;27.18;95187.63;5055137;28;20536;-78
2022/07/12 11:07:30;;;;;;;5.97;2.00;;;;;;;23.59;26.66;95193.56;5038476;28;20082;-78
2022/07/12 11:09:55;;;;;;;4.32;1.05;;;;;;;23.63;26.45;95181.56;5055551;28;20041;-78
2022/07/12 11:12:28;;;;;;;2.45;0.90;;;;;;;23.69;26.67;95198.53;5054874;28;20486;-78
2022/07/12 11:14:54;;;;;;;5.05;1.13;;;;;;;23.75;26.55;95204.91;5055129;28;20044;-78
2022/07/12 11:17:28;;;;;;;3.55;1.13;;;;;;;23.81;26.84;95201.44;5055182;28;20024;-78
2022/07/12 11:20:10;;;;;;;4.03;0.90;;;;;;;23.70;25.93;95205.44;5055029;28;20040;-78
2022/07/12 11:22:37;;;;;;;2.35;0.90;;;;;;;23.59;25.86;95201.53;5071507;28;20032;-78
2022/07/12 11:25:03;;;;;;;4.22;1.35;;;;;;;23.60;26.77;95191.78;5071690;28;20087;-78
2022/07/12 11:27:29;;;;;;;4.53;1.20;;;;;;;23.63;26.59;95192.19;5054519;28;20028;-78
2022/07/12 11:29:58;;;;;;;4.38;1.73;;;;;;;23.60;28.46;95192.56;5054748;28;20418;-78
2022/07/12 11:32:34;;;;;;;4.70;1.23;;;;;;;23.58;27.41;95188.50;5054690;28;20561;-78
2022/07/12 11:34:59;;;;;;;4.55;1.27;;;;;;;23.62;27.73;95185.25;5054933;28;20051;-77
2022/07/12 11:37:25;;;;;;;4.97;1.05;;;;;;;23.58;27.31;95173.38;5054746;28;20025;-78
2022/07/12 11:39:50;;;;;;;2.72;1.20;;;;;;;23.69;27.61;95187.09;5071077;28;20494;-78